createdAt,value
2023-03-07T00:01:08.624Z,5.47
2023-03-07T00:03:36.858Z,6.03
2023-03-07T00:06:07.318Z,7.43
2023-03-07T00:08:35.500Z,8.10
2023-03-07T00:11:04.575Z,6.25
2023-03-07T00:13:33.213Z,6.47
2023-03-07T00:16:03.350Z,5.72
2023-03-07T00:18:33.377Z,6.57
2023-03-07T00:21:03.068Z,5.85
2023-03-07T00:23:30.937Z,6.15
2023-03-07T00:26:03.602Z,5.63
2023-03-07T00:28:31.622Z,6.20
2023-03-07T00:31:03.392Z,5.78
2023-03-07T00:33:32.846Z,4.95
2023-03-07T00:38:30.573Z,4.43
2023-03-07T00:40:59.854Z,4.93
2023-03-07T00:43:28.127Z,5.13
2023-03-07T00:45:56.420Z,4.60
2023-03-07T00:48:24.965Z,5.60
2023-03-07T00:50:54.467Z,4.38
2023-03-07T00:53:22.846Z,4.55
2023-03-07T00:55:58.395Z,4.30
2023-03-07T00:58:27.361Z,5.40
2023-03-07T01:00:55.337Z,4.90
2023-03-07T01:03:24.636Z,5.60
2023-03-07T01:05:54.812Z,5.28
2023-03-07T01:08:24.387Z,4.97
2023-03-07T01:10:52.436Z,5.47
2023-03-07T01:13:21.728Z,6.18
2023-03-07T01:15:50.309Z,5.72
2023-03-07T01:18:18.390Z,4.88
2023-03-07T01:20:46.842Z,5.03
2023-03-07T01:23:16.228Z,6.35
2023-03-07T01:25:44.420Z,6.03
2023-03-07T01:28:14.792Z,4.82
2023-03-07T01:30:42.924Z,5.63
2023-03-07T01:33:11.258Z,6.05
2023-03-07T01:35:40.882Z,5.30
2023-03-07T01:38:08.744Z,5.72
2023-03-07T01:40:39.954Z,4.57
2023-03-07T01:43:27.141Z,5.88
2023-03-07T01:46:43.085Z,5.93
2023-03-07T01:49:19.012Z,5.63
2023-03-07T01:51:53.331Z,6.20
2023-03-07T01:54:24.486Z,7.63
2023-03-07T01:56:55.562Z,5.53
2023-03-07T01:59:28.637Z,6.05
2023-03-07T02:01:58.792Z,5.55
2023-03-07T02:04:33.190Z,5.25
2023-03-07T02:07:02.358Z,5.03
2023-03-07T02:09:33.813Z,5.43
2023-03-07T02:12:03.196Z,7.30
2023-03-07T02:14:32.024Z,6.30
2023-03-07T02:17:01.477Z,6.88
2023-03-07T02:19:49.108Z,4.72
2023-03-07T02:22:19.773Z,5.68
2023-03-07T02:24:52.564Z,6.60
2023-03-07T02:27:24.278Z,5.32
2023-03-07T02:29:52.349Z,4.63
2023-03-07T02:32:20.629Z,5.45
2023-03-07T02:34:48.516Z,5.22
2023-03-07T02:37:26.422Z,4.80
2023-03-07T02:39:55.866Z,5.15
2023-03-07T02:42:28.893Z,6.32
2023-03-07T02:45:07.756Z,5.65
2023-03-07T02:47:37.144Z,5.13
2023-03-07T02:50:06.354Z,7.30
2023-03-07T02:52:35.259Z,5.82
2023-03-07T02:55:03.463Z,5.38
2023-03-07T02:57:36.453Z,5.75
2023-03-07T03:00:08.108Z,5.20
2023-03-07T03:02:36.257Z,5.25
2023-03-07T03:05:04.546Z,5.07
2023-03-07T03:07:32.523Z,5.75
2023-03-07T03:12:31.121Z,5.70
2023-03-07T03:15:00.922Z,6.38
2023-03-07T03:17:28.954Z,5.43
2023-03-07T03:19:58.436Z,6.05
2023-03-07T03:22:26.507Z,7.07
2023-03-07T03:24:54.453Z,6.72
2023-03-07T03:27:22.353Z,6.30
2023-03-07T03:29:55.038Z,6.40
2023-03-07T03:32:24.592Z,7.95
2023-03-07T03:34:52.708Z,5.85
2023-03-07T03:37:20.779Z,7.15
2023-03-07T03:39:48.699Z,5.85
2023-03-07T03:42:16.562Z,7.50
2023-03-07T03:44:44.488Z,7.28
2023-03-07T03:47:13.331Z,8.30
2023-03-07T03:49:42.766Z,5.60
2023-03-07T03:52:12.054Z,6.80
2023-03-07T03:54:39.935Z,7.00
2023-03-07T03:57:07.848Z,6.32
2023-03-07T03:59:35.762Z,7.97
2023-03-07T04:02:03.872Z,6.72
2023-03-07T04:04:31.795Z,7.47
2023-03-07T04:07:01.155Z,7.45
2023-03-07T04:11:56.865Z,7.00
2023-03-07T04:14:24.897Z,6.20
2023-03-07T04:16:53.148Z,6.72
2023-03-07T04:19:22.087Z,6.75
2023-03-07T04:21:50.640Z,6.32
2023-03-07T04:24:20.188Z,6.25
2023-03-07T04:26:48.476Z,6.63
2023-03-07T04:29:16.603Z,6.50
2023-03-07T04:31:51.715Z,6.25
2023-03-07T04:34:19.651Z,6.38
2023-03-07T04:36:47.524Z,7.47
2023-03-07T04:39:15.509Z,6.97
2023-03-07T04:41:45.062Z,6.93
2023-03-07T04:44:18.088Z,5.47
2023-03-07T04:46:45.968Z,6.72
2023-03-07T04:49:13.846Z,7.00
2023-03-07T04:51:44.035Z,7.50
2023-03-07T04:54:13.327Z,7.10
2023-03-07T04:56:42.281Z,6.93
2023-03-07T04:59:13.346Z,7.40
2023-03-07T05:01:42.161Z,7.38
2023-03-07T05:04:10.180Z,6.57
2023-03-07T05:06:39.610Z,7.43
2023-03-07T05:09:08.359Z,8.02
2023-03-07T05:11:36.250Z,5.13
2023-03-07T05:14:04.422Z,6.90
2023-03-07T05:16:33.729Z,6.28
2023-03-07T05:21:32.051Z,7.82
2023-03-07T05:24:00.522Z,7.95
2023-03-07T05:26:29.471Z,8.20
2023-03-07T05:28:57.331Z,6.22
2023-03-07T05:31:25.439Z,7.78
2023-03-07T05:33:54.731Z,8.23
2023-03-07T05:36:22.591Z,7.15
2023-03-07T05:38:53.551Z,5.60
2023-03-07T05:41:21.754Z,6.40
2023-03-07T05:43:50.088Z,6.50
2023-03-07T05:46:18.005Z,5.82
2023-03-07T05:48:45.821Z,7.63
2023-03-07T05:51:15.063Z,7.78
2023-03-07T05:53:43.242Z,7.13
2023-03-07T05:56:11.160Z,7.45
2023-03-07T05:58:39.191Z,8.35
2023-03-07T06:01:07.437Z,7.00
2023-03-07T06:03:35.629Z,7.90
2023-03-07T06:06:03.969Z,7.43
2023-03-07T06:08:33.178Z,8.10
2023-03-07T06:13:31.027Z,7.72
2023-03-07T06:15:59.338Z,6.55
2023-03-07T06:18:27.732Z,7.13
2023-03-07T06:20:57.699Z,5.93
2023-03-07T06:23:26.791Z,7.47
2023-03-07T06:25:56.198Z,6.43
2023-03-07T06:28:24.184Z,7.13
2023-03-07T06:30:52.464Z,6.20
2023-03-07T06:33:20.900Z,5.63
2023-03-07T06:35:48.956Z,5.85
2023-03-07T06:38:17.945Z,6.78
2023-03-07T06:43:15.677Z,6.88
2023-03-07T06:48:12.318Z,7.38
2023-03-07T06:53:09.432Z,6.88
2023-03-07T06:55:37.833Z,7.00
2023-03-07T06:58:05.676Z,8.50
2023-03-07T07:00:34.936Z,7.38
2023-03-07T07:03:03.052Z,7.22
2023-03-07T07:05:31.790Z,7.85
2023-03-07T07:08:00.235Z,6.88
2023-03-07T07:10:28.225Z,6.97
2023-03-07T07:12:57.551Z,7.32
2023-03-07T07:15:26.462Z,6.63
2023-03-07T07:17:55.705Z,6.18
2023-03-07T07:20:25.111Z,6.68
2023-03-07T07:22:54.005Z,5.45
2023-03-07T07:25:22.137Z,6.30
2023-03-07T07:27:50.053Z,6.22
2023-03-07T07:30:18.049Z,6.10
2023-03-07T07:32:46.134Z,6.45
2023-03-07T07:35:15.635Z,5.45
2023-03-07T07:37:43.585Z,5.93
2023-03-07T07:40:12.712Z,5.22
2023-03-07T07:42:41.022Z,5.40
2023-03-07T07:45:23.379Z,5.80
2023-03-07T07:47:51.654Z,6.30
2023-03-07T07:50:22.860Z,7.07
2023-03-07T07:52:51.012Z,6.53
2023-03-07T07:55:18.986Z,6.25
2023-03-07T07:57:46.920Z,6.75
2023-03-07T08:00:21.101Z,6.03
2023-03-07T08:02:50.607Z,6.40
2023-03-07T08:05:19.510Z,5.35
2023-03-07T08:07:50.360Z,7.28
2023-03-07T08:10:19.449Z,5.20
2023-03-07T08:12:51.387Z,7.07
2023-03-07T08:15:21.356Z,6.85
2023-03-07T08:17:50.494Z,6.32
2023-03-07T08:20:18.564Z,6.22
2023-03-07T08:22:52.793Z,6.45
2023-03-07T08:25:24.902Z,6.35
2023-03-07T08:27:55.057Z,6.75
2023-03-07T08:30:23.730Z,6.15
2023-03-07T08:32:52.534Z,6.30
2023-03-07T08:35:20.812Z,6.75
2023-03-07T08:37:49.336Z,7.05
2023-03-07T08:40:18.956Z,6.03
2023-03-07T08:42:46.811Z,6.57
2023-03-07T08:45:15.290Z,6.13
2023-03-07T08:47:43.179Z,7.07
2023-03-07T08:50:12.252Z,7.15
2023-03-07T08:52:40.253Z,6.63
2023-03-07T08:55:08.744Z,5.40
2023-03-07T08:57:37.965Z,6.23
2023-03-07T09:00:09.571Z,6.00
2023-03-07T09:02:37.511Z,6.22
2023-03-07T09:05:05.862Z,4.80
2023-03-07T09:07:33.781Z,6.47
2023-03-07T09:10:01.832Z,6.03
2023-03-07T09:12:29.755Z,7.03
2023-03-07T09:14:58.930Z,6.57
2023-03-07T09:17:26.766Z,6.05
2023-03-07T09:19:54.602Z,7.75
2023-03-07T09:22:22.485Z,5.78
2023-03-07T09:24:50.296Z,7.45
2023-03-07T09:27:18.902Z,7.40
2023-03-07T09:29:47.982Z,7.68
2023-03-07T09:32:17.396Z,6.82
2023-03-07T09:37:14.148Z,4.70
2023-03-07T09:39:41.998Z,5.38
2023-03-07T09:42:20.097Z,6.43
2023-03-07T09:45:10.661Z,6.80
2023-03-07T09:48:12.143Z,6.00
2023-03-07T09:50:45.642Z,6.95
2023-03-07T09:53:20.054Z,6.05
2023-03-07T09:55:51.367Z,8.13
2023-03-07T09:58:23.092Z,5.97
2023-03-07T10:00:56.046Z,6.05
2023-03-07T10:03:32.627Z,6.63
2023-03-07T10:06:05.403Z,5.60
2023-03-07T10:08:34.886Z,5.93
2023-03-07T10:11:15.042Z,6.25
2023-03-07T10:13:58.760Z,6.00
2023-03-07T10:16:32.422Z,6.68
2023-03-07T10:19:11.034Z,7.20
2023-03-07T10:21:45.829Z,7.20
2023-03-07T10:24:37.705Z,7.57
2023-03-07T10:27:08.383Z,6.88
2023-03-07T10:29:41.838Z,6.40
2023-03-07T10:32:20.860Z,7.55
2023-03-07T10:34:55.954Z,5.80
2023-03-07T10:37:35.640Z,6.40
2023-03-07T10:40:05.064Z,5.45
2023-03-07T10:42:39.667Z,6.10
2023-03-07T10:45:08.673Z,4.97
2023-03-07T10:47:36.503Z,6.90
2023-03-07T10:50:17.448Z,4.72
2023-03-07T10:52:50.153Z,5.70
2023-03-07T10:55:39.891Z,6.80
2023-03-07T10:58:20.766Z,5.45
2023-03-07T11:01:00.425Z,5.68
2023-03-07T11:03:45.977Z,5.30
2023-03-07T11:06:31.772Z,5.90
2023-03-07T11:09:10.072Z,5.85
2023-03-07T11:11:39.025Z,5.53
2023-03-07T11:14:08.766Z,6.15
2023-03-07T11:16:41.776Z,5.50
2023-03-07T11:19:33.210Z,6.45
2023-03-07T11:22:04.743Z,7.45
2023-03-07T11:24:37.656Z,7.05
2023-03-07T11:27:05.924Z,6.55
2023-03-07T11:29:34.867Z,6.90
2023-03-07T11:32:14.920Z,6.80
2023-03-07T11:34:48.340Z,6.95
2023-03-07T11:37:28.813Z,5.75
2023-03-07T11:40:12.950Z,5.38
2023-03-07T11:42:46.151Z,7.35
2023-03-07T11:45:30.528Z,7.15
2023-03-07T11:48:06.943Z,6.07
2023-03-07T11:50:35.936Z,6.88
2023-03-07T11:53:33.775Z,6.05
2023-03-07T11:56:24.895Z,7.38
2023-03-07T11:59:27.321Z,7.07
2023-03-07T12:01:58.412Z,6.75
2023-03-07T12:05:04.306Z,8.20
2023-03-07T12:07:51.682Z,7.53
2023-03-07T12:10:32.500Z,7.25
2023-03-07T12:13:12.591Z,9.00
2023-03-07T12:15:43.139Z,7.60
2023-03-07T12:18:30.871Z,8.35
2023-03-07T12:21:09.682Z,5.60
2023-03-07T12:23:43.057Z,6.55
2023-03-07T12:26:18.321Z,8.27
2023-03-07T12:28:51.401Z,7.20
2023-03-07T12:31:24.314Z,10.18
2023-03-07T12:33:59.383Z,8.80
2023-03-07T12:36:34.112Z,8.88
2023-03-07T12:39:08.232Z,8.90
2023-03-07T12:41:45.778Z,8.85
2023-03-07T12:44:18.633Z,9.38
2023-03-07T12:46:50.484Z,8.73
2023-03-07T12:49:25.593Z,8.60
2023-03-07T12:51:56.880Z,9.52
2023-03-07T12:54:28.991Z,9.35
2023-03-07T12:57:03.692Z,8.93
2023-03-07T12:59:37.095Z,9.88
2023-03-07T13:02:11.654Z,8.63
2023-03-07T13:04:42.579Z,9.00
2023-03-07T13:07:13.717Z,8.90
2023-03-07T13:09:44.044Z,9.65
2023-03-07T13:12:40.172Z,8.57
2023-03-07T13:15:28.804Z,7.18
2023-03-07T13:18:01.182Z,7.47
2023-03-07T13:20:44.080Z,7.10
2023-03-07T13:23:25.360Z,5.75
2023-03-07T13:26:09.159Z,6.38
2023-03-07T13:28:52.595Z,5.45
2023-03-07T13:31:43.784Z,5.30
2023-03-07T13:34:46.363Z,10.30
2023-03-07T13:37:47.777Z,11.18
2023-03-07T13:40:52.852Z,4.82
2023-03-07T13:43:54.340Z,3.67
2023-03-07T13:47:01.363Z,3.13
2023-03-07T13:49:46.823Z,3.40
2023-03-07T13:52:34.301Z,3.10
2023-03-07T13:55:04.410Z,2.65
2023-03-07T13:57:41.714Z,2.03
2023-03-07T14:00:24.981Z,2.33
2023-03-07T14:02:54.645Z,2.05
2023-03-07T14:05:24.406Z,2.13
2023-03-07T14:07:53.331Z,1.77
2023-03-07T14:10:27.880Z,1.73
2023-03-07T14:13:46.458Z,1.45
2023-03-07T14:16:25.118Z,1.67
2023-03-07T14:19:06.246Z,1.80
2023-03-07T14:21:47.230Z,2.13
2023-03-07T14:24:31.202Z,2.72
2023-03-07T14:27:00.845Z,3.05
2023-03-07T14:29:30.160Z,2.90
2023-03-07T14:34:29.899Z,2.95
2023-03-07T14:37:01.581Z,3.03
2023-03-07T14:39:43.977Z,3.53
2023-03-07T14:42:22.788Z,3.10
2023-03-07T14:45:10.795Z,3.40
2023-03-07T14:48:07.501Z,3.22
2023-03-07T14:50:39.841Z,3.30
2023-03-07T14:53:16.430Z,3.17
2023-03-07T14:55:46.980Z,3.10
2023-03-07T14:58:19.817Z,2.90
2023-03-07T15:00:47.966Z,3.08
2023-03-07T15:03:16.240Z,2.80
2023-03-07T15:05:49.480Z,2.55
2023-03-07T15:08:25.633Z,2.42
2023-03-07T15:11:00.278Z,2.17
2023-03-07T15:13:32.593Z,6.88
2023-03-07T15:16:04.686Z,4.03
2023-03-07T15:18:36.241Z,3.13
2023-03-07T15:21:05.879Z,4.50
2023-03-07T15:23:35.412Z,4.72
2023-03-07T15:26:06.563Z,9.48
2023-03-07T15:28:36.905Z,2.83
2023-03-07T15:31:05.649Z,6.85
2023-03-07T15:33:34.915Z,7.95
2023-03-07T15:36:21.393Z,3.53
2023-03-07T15:38:52.120Z,3.22
2023-03-07T15:41:29.689Z,3.08
2023-03-07T15:44:22.211Z,2.92
2023-03-07T15:46:52.143Z,2.60
2023-03-07T15:49:23.471Z,4.55
2023-03-07T15:51:54.308Z,4.40
2023-03-07T15:54:32.106Z,6.00
2023-03-07T15:57:04.236Z,3.63
2023-03-07T15:59:35.528Z,4.68
2023-03-07T16:02:42.400Z,3.70
2023-03-07T16:05:32.895Z,3.40
2023-03-07T16:08:00.961Z,4.05
2023-03-07T16:10:32.892Z,5.15
2023-03-07T16:13:02.231Z,4.38
2023-03-07T16:15:30.726Z,4.72
2023-03-07T16:17:58.858Z,5.60
2023-03-07T16:20:29.031Z,4.90
2023-03-07T16:22:57.051Z,4.43
2023-03-07T16:25:27.528Z,4.47
2023-03-07T16:28:00.989Z,5.05
2023-03-07T16:30:30.375Z,3.72
2023-03-07T16:35:28.113Z,5.20
2023-03-07T16:37:56.277Z,4.47
2023-03-07T16:40:26.102Z,3.55
2023-03-07T16:42:54.110Z,3.92
2023-03-07T16:45:26.882Z,3.53
2023-03-07T16:47:56.664Z,3.50
2023-03-07T16:50:26.624Z,4.72
2023-03-07T16:52:54.555Z,6.80
2023-03-07T16:55:23.304Z,3.92
2023-03-07T16:57:53.937Z,4.05
2023-03-07T17:00:25.978Z,4.28
2023-03-07T17:02:55.476Z,3.17
2023-03-07T17:07:56.407Z,3.58
2023-03-07T17:10:26.399Z,3.67
2023-03-07T17:12:55.692Z,4.25
2023-03-07T17:15:30.263Z,4.95
2023-03-07T17:17:59.172Z,5.30
2023-03-07T17:20:28.531Z,5.10
2023-03-07T17:25:24.623Z,5.68
2023-03-07T17:27:55.505Z,5.55
2023-03-07T17:30:26.953Z,5.47
2023-03-07T17:32:55.140Z,5.75
2023-03-07T17:35:23.968Z,5.68
2023-03-07T17:37:53.900Z,6.10
2023-03-07T17:40:22.473Z,5.38
2023-03-07T17:42:51.743Z,5.75
2023-03-07T17:45:20.050Z,6.57
2023-03-07T17:47:53.950Z,6.55
2023-03-07T17:50:24.581Z,7.07
2023-03-07T17:52:52.715Z,9.55
2023-03-07T17:55:21.563Z,8.23
2023-03-07T17:57:49.420Z,7.57
2023-03-07T18:00:20.571Z,7.05
2023-03-07T18:02:49.060Z,8.27
2023-03-07T18:05:19.533Z,12.82
2023-03-07T18:07:49.323Z,8.07
2023-03-07T18:10:17.528Z,8.07
2023-03-07T18:12:46.024Z,7.88
2023-03-07T18:15:16.309Z,7.10
2023-03-07T18:17:48.857Z,7.22
2023-03-07T18:20:21.498Z,7.10
2023-03-07T18:22:50.081Z,8.85
2023-03-07T18:25:19.616Z,9.10
2023-03-07T18:27:48.300Z,7.47
2023-03-07T18:30:16.965Z,7.18
2023-03-07T18:32:45.037Z,8.73
2023-03-07T18:35:15.455Z,7.47
2023-03-07T18:37:45.438Z,7.35
2023-03-07T18:40:14.125Z,6.50
2023-03-07T18:42:42.838Z,6.88
2023-03-07T18:45:11.987Z,7.10
2023-03-07T18:47:42.145Z,7.07
2023-03-07T18:50:11.580Z,7.18
2023-03-07T18:52:39.493Z,7.43
2023-03-07T18:55:09.609Z,8.43
2023-03-07T18:57:37.503Z,7.68
2023-03-07T19:00:06.667Z,7.13
2023-03-07T19:02:34.680Z,7.38
2023-03-07T19:05:02.610Z,7.65
2023-03-07T19:07:31.390Z,8.52
2023-03-07T19:09:59.408Z,8.68
2023-03-07T19:12:28.661Z,8.82
2023-03-07T19:14:56.547Z,25.83
2023-03-07T19:17:25.328Z,16.85
2023-03-07T19:19:58.988Z,11.07
2023-03-07T19:22:30.000Z,8.18
2023-03-07T19:24:57.906Z,8.70
2023-03-07T19:27:27.694Z,8.50
2023-03-07T19:29:56.989Z,7.82
2023-03-07T19:32:24.984Z,8.98
2023-03-07T19:34:52.939Z,9.77
2023-03-07T19:37:20.824Z,10.27
2023-03-07T19:39:51.634Z,9.38
2023-03-07T19:42:19.753Z,9.55
2023-03-07T19:44:47.671Z,7.05
2023-03-07T19:47:16.942Z,5.72
2023-03-07T19:52:12.630Z,7.35
2023-03-07T19:54:40.462Z,5.18
2023-03-07T19:57:09.216Z,5.05
2023-03-07T19:59:37.122Z,4.72
2023-03-07T20:02:04.974Z,4.32
2023-03-07T20:04:34.279Z,3.50
2023-03-07T20:09:29.943Z,3.40
2023-03-07T20:11:57.913Z,3.40
2023-03-07T20:14:25.879Z,3.78
2023-03-07T20:16:53.883Z,3.78
2023-03-07T20:19:22.083Z,5.68
2023-03-07T20:21:51.290Z,3.80
2023-03-07T20:24:19.251Z,3.80
2023-03-07T20:26:48.240Z,3.95
2023-03-07T20:29:16.176Z,3.72
2023-03-07T20:31:44.056Z,3.78
2023-03-07T20:34:12.534Z,3.60
2023-03-07T20:36:40.373Z,3.57
2023-03-07T20:39:14.986Z,3.92
2023-03-07T20:41:43.983Z,3.72
2023-03-07T20:44:13.847Z,3.75
2023-03-07T20:46:42.100Z,4.07
2023-03-07T20:49:13.262Z,6.25
2023-03-07T20:51:42.149Z,4.85
2023-03-07T20:54:19.715Z,4.25
2023-03-07T20:56:48.473Z,3.90
2023-03-07T20:59:18.022Z,5.00
2023-03-07T21:01:46.144Z,4.97
2023-03-07T21:04:17.639Z,5.65
2023-03-07T21:06:46.344Z,5.13
2023-03-07T21:09:16.974Z,4.60
2023-03-07T21:11:46.612Z,3.30
2023-03-07T21:14:15.579Z,3.88
2023-03-07T21:16:44.272Z,4.10
2023-03-07T21:19:12.692Z,3.10
2023-03-07T21:21:40.982Z,2.88
2023-03-07T21:24:09.889Z,3.30
2023-03-07T21:26:39.441Z,3.53
2023-03-07T21:29:08.933Z,3.45
2023-03-07T21:31:38.657Z,3.45
2023-03-07T21:34:09.323Z,2.90
2023-03-07T21:36:37.206Z,3.15
2023-03-07T21:39:07.998Z,2.67
2023-03-07T21:41:36.267Z,2.95
2023-03-07T21:44:06.168Z,3.50
2023-03-07T21:46:34.419Z,3.55
2023-03-07T21:49:02.917Z,3.42
2023-03-07T21:51:30.864Z,3.38
2023-03-07T21:53:58.873Z,4.47
2023-03-07T21:56:27.308Z,3.80
2023-03-07T21:58:55.218Z,4.13
2023-03-07T22:01:26.462Z,3.85
2023-03-07T22:03:55.797Z,4.90
2023-03-07T22:08:52.099Z,4.90
2023-03-07T22:11:19.990Z,4.40
2023-03-07T22:13:47.920Z,3.40
2023-03-07T22:16:17.992Z,3.83
2023-03-07T22:18:52.564Z,3.95
2023-03-07T22:21:21.224Z,3.42
2023-03-07T22:23:49.113Z,3.33
2023-03-07T22:26:16.986Z,3.65
2023-03-07T22:28:45.020Z,3.63
2023-03-07T22:31:13.958Z,3.88
2023-03-07T22:33:42.626Z,3.20
2023-03-07T22:36:16.530Z,3.65
2023-03-07T22:38:45.062Z,3.58
2023-03-07T22:41:15.171Z,3.92
2023-03-07T22:43:43.345Z,2.80
2023-03-07T22:46:12.062Z,2.63
2023-03-07T22:48:40.404Z,2.83
2023-03-07T22:51:14.041Z,2.97
2023-03-07T22:53:42.040Z,2.33
2023-03-07T22:56:15.868Z,2.50
2023-03-07T22:58:43.806Z,2.22
2023-03-07T23:01:14.184Z,2.40
2023-03-07T23:03:42.483Z,2.50
2023-03-07T23:06:12.553Z,2.72
2023-03-07T23:08:40.776Z,2.50
2023-03-07T23:11:10.262Z,2.72
2023-03-07T23:13:38.268Z,2.95
2023-03-07T23:16:09.787Z,2.78
2023-03-07T23:18:38.989Z,2.47
2023-03-07T23:21:08.592Z,2.33
2023-03-07T23:23:38.302Z,2.75
2023-03-07T23:26:06.894Z,2.88
2023-03-07T23:28:35.339Z,2.90
2023-03-07T23:31:03.496Z,3.37
2023-03-07T23:33:31.457Z,3.15
2023-03-07T23:36:00.455Z,2.47
2023-03-07T23:38:28.372Z,2.70
2023-03-07T23:40:59.348Z,2.05
2023-03-07T23:43:27.245Z,3.08
2023-03-07T23:45:55.124Z,3.13
2023-03-07T23:48:23.044Z,3.10
2023-03-07T23:50:51.193Z,2.95
2023-03-07T23:53:19.022Z,3.25
2023-03-07T23:55:46.824Z,3.38
2023-03-07T23:58:16.031Z,3.47
